McAndrews, Kentucky
Current Conditions -  °F | °C
As of 3:35 PM on Thursday 27 Nov 2014 (Local Time) from KPBX Reporting Station
Overcast Overcast  
Wind Chill: 24°   Ceiling: 2200
Heat Index: 30°   Visibility: 10mi
Dew Point: 23°   Wind: 7mph
Humidity: 73%   Direction: 290°WNW
Pressure: 30.25"   Gusts: NA
Location:  37.57°N, 82.27°W
Report Text: KPBX 272035Z AUTO 29006KT 10SM OVC022 M01/M05 A3025 RMK AO2 T10091051
Loading
Personal Weather Stations






























Interactive Weather Map New forecast layout! Learn more

10-Day Weather Forecast

Advertisements
Track Severe Weather on mobile